Time;durP1;ratioP1;P1;durP2;ratioP2;P2;SDS_P1;SDS_P2;PMS_P1;PMS_P2;Temp;Humidity;BMP_temperature;BMP_pressure;BME280_temperature;BME280_humidity;BME280_pressure;Samples;Min_cycle;Max_cycle;Signal;HPM_P1;HPM_P2
2023/05/23 00:00:35;;;;;;;35.20;15.75;;;;;;;;;;6134181;23;20100;-94
2023/05/23 00:08:27;;;;;;;36.97;15.93;;;;;;;;;;6254644;22;20339;-95
2023/05/23 00:11:00;;;;;;;29.85;14.82;;;;;;;;;;6247978;22;20008;-93
2023/05/23 00:13:25;;;;;;;33.00;15.05;;;;;;;;;;6244348;22;20106;-94
2023/05/23 00:15:53;;;;;;;32.17;15.45;;;;;;;;;;6249072;22;20031;-94
2023/05/23 00:18:18;;;;;;;32.25;15.88;;;;;;;;;;6249130;22;20014;-96
2023/05/23 00:20:44;;;;;;;36.38;16.25;;;;;;;;;;6254583;22;20522;-96
2023/05/23 00:23:12;;;;;;;45.95;16.90;;;;;;;;;;6281221;22;20046;-96
2023/05/23 00:25:47;;;;;;;41.63;17.75;;;;;;;;;;6252561;22;20018;-95
2023/05/23 00:28:13;;;;;;;39.75;17.30;;;;;;;;;;6249866;22;20492;-95
2023/05/23 00:30:40;;;;;;;39.97;16.75;;;;;;;;;;6247896;22;20012;-95
2023/05/23 00:33:06;;;;;;;34.70;16.73;;;;;;;;;;6247466;22;19999;-96
2023/05/23 00:35:31;;;;;;;35.00;16.48;;;;;;;;;;6254980;22;20179;-96
2023/05/23 00:38:06;;;;;;;41.25;17.27;;;;;;;;;;6254057;22;20019;-96
2023/05/23 00:40:31;;;;;;;36.97;16.33;;;;;;;;;;6254380;22;20452;-96
2023/05/23 00:43:00;;;;;;;36.10;16.80;;;;;;;;;;6249608;22;20090;-96
2023/05/23 00:45:28;;;;;;;27.20;13.10;;;;;;;;;;6253407;22;20011;-96
2023/05/23 00:48:03;;;;;;;33.88;15.70;;;;;;;;;;6252495;22;20014;-96
2023/05/23 00:50:28;;;;;;;38.50;15.27;;;;;;;;;;6254655;22;20086;-96
2023/05/23 00:52:54;;;;;;;30.25;12.18;;;;;;;;;;6255706;22;20000;-96
2023/05/23 00:55:23;;;;;;;35.20;15.70;;;;;;;;;;6255136;22;20087;-96
2023/05/23 00:57:48;;;;;;;32.80;16.00;;;;;;;;;;6253544;22;20030;-96
2023/05/23 01:00:18;;;;;;;26.33;12.75;;;;;;;;;;6254572;22;20059;-96
2023/05/23 01:02:52;;;;;;;40.97;15.52;;;;;;;;;;6254363;22;20003;-96
2023/05/23 01:05:18;;;;;;;31.38;13.75;;;;;;;;;;6254458;22;20004;-96
2023/05/23 01:07:45;;;;;;;31.92;14.50;;;;;;;;;;6277889;22;20007;-96
2023/05/23 01:10:11;;;;;;;32.58;14.40;;;;;;;;;;6252105;22;20011;-96
2023/05/23 01:13:02;;;;;;;;;;;;;;;;;;;;;
2023/05/23 01:15:29;;;;;;;29.48;13.88;;;;;;;;;;6279936;22;20493;-96
2023/05/23 01:18:06;;;;;;;31.23;14.10;;;;;;;;;;6252443;22;20008;-96
2023/05/23 01:20:55;;;;;;;31.80;14.65;;;;;;;;;;6253710;22;20002;-96
2023/05/23 01:23:42;;;;;;;39.35;14.88;;;;;;;;;;6238093;22;20022;-96
2023/05/23 01:26:28;;;;;;;32.63;14.77;;;;;;;;;;6276925;22;20003;-96
2023/05/23 01:28:55;;;;;;;30.55;13.65;;;;;;;;;;6280891;22;20000;-96
2023/05/23 01:31:26;;;;;;;29.00;14.15;;;;;;;;;;6255455;22;20000;-96
2023/05/23 01:33:55;;;;;;;27.85;14.23;;;;;;;;;;6254048;22;20000;-96
2023/05/23 01:36:20;;;;;;;30.50;14.00;;;;;;;;;;6256277;22;20027;-96
2023/05/23 01:38:46;;;;;;;25.85;12.88;;;;;;;;;;6257730;22;20330;-96
2023/05/23 01:41:19;;;;;;;32.78;13.88;;;;;;;;;;6254400;22;20019;-96
2023/05/23 01:43:44;;;;;;;31.77;14.88;;;;;;;;;;6255661;22;20063;-96
2023/05/23 01:48:56;;;;;;;34.70;16.02;;;;;;;;;;6283300;22;20000;-96
2023/05/23 01:51:26;;;;;;;33.47;13.98;;;;;;;;;;6254484;22;20139;-96
2023/05/23 01:53:54;;;;;;;32.25;12.90;;;;;;;;;;6255582;22;20041;-96
2023/05/23 01:56:32;;;;;;;;;;;;;;;;;;;;;
2023/05/23 01:59:07;;;;;;;29.50;12.32;;;;;;;;;;6280800;22;20052;-96
2023/05/23 02:01:36;;;;;;;27.17;12.93;;;;;;;;;;6254783;22;20012;-96
2023/05/23 02:04:06;;;;;;;26.23;11.45;;;;;;;;;;6252626;22;20431;-96
2023/05/23 02:06:37;;;;;;;21.90;9.65;;;;;;;;;;6252659;22;19996;-96
2023/05/23 02:09:06;;;;;;;21.95;10.50;;;;;;;;;;6279193;22;20014;-96
2023/05/23 02:11:53;;;;;;;21.33;8.85;;;;;;;;;;6251907;22;19999;-96
2023/05/23 02:14:25;;;;;;;20.50;10.18;;;;;;;;;;6252890;22;20083;-96
2023/05/23 02:17:00;;;;;;;18.77;9.55;;;;;;;;;;6252985;22;20011;-96
2023/05/23 02:19:26;;;;;;;22.95;9.52;;;;;;;;;;6252127;22;20031;-95
2023/05/23 02:21:53;;;;;;;14.63;8.23;;;;;;;;;;6252497;22;20019;-96
2023/05/23 02:24:21;;;;;;;21.48;9.80;;;;;;;;;;6253624;22;20006;-96
2023/05/23 02:26:52;;;;;;;17.55;8.93;;;;;;;;;;6253905;22;20035;-96
2023/05/23 02:29:17;;;;;;;21.80;11.15;;;;;;;;;;6254178;22;20000;-96
2023/05/23 02:31:43;;;;;;;24.85;9.70;;;;;;;;;;6253293;22;20000;-96
2023/05/23 02:34:11;;;;;;;20.70;9.10;;;;;;;;;;6254203;22;20019;-96
2023/05/23 02:36:38;;;;;;;15.07;8.35;;;;;;;;;;6253126;22;20003;-96
2023/05/23 02:39:03;;;;;;;20.52;8.95;;;;;;;;;;6228422;22;20095;-96
2023/05/23 02:41:37;;;;;;;16.90;7.93;;;;;;;;;;6279733;22;20330;-96
2023/05/23 02:44:04;;;;;;;18.52;7.13;;;;;;;;;;6253827;22;19996;-96
2023/05/23 02:46:33;;;;;;;19.02;7.35;;;;;;;;;;6254245;22;20401;-96
2023/05/23 02:49:01;;;;;;;12.57;6.90;;;;;;;;;;6254073;22;20069;-96
2023/05/23 02:51:26;;;;;;;16.45;8.15;;;;;;;;;;6252598;22;20012;-96
2023/05/23 02:54:09;;;;;;;19.15;8.55;;;;;;;;;;6252788;22;20054;-96
2023/05/23 02:56:34;;;;;;;19.38;7.70;;;;;;;;;;6250208;22;20442;-96
2023/05/23 03:02:01;;;;;;;14.98;7.55;;;;;;;;;;6282891;22;20003;-96
2023/05/23 03:04:45;;;;;;;19.27;7.68;;;;;;;;;;6279260;22;20080;-96
2023/05/23 03:10:04;;;;;;;18.10;7.35;;;;;;;;;;6258990;22;20050;-96
2023/05/23 03:12:34;;;;;;;21.00;9.60;;;;;;;;;;6253404;22;19995;-96
2023/05/23 03:15:00;;;;;;;22.25;7.93;;;;;;;;;;6254527;22;19995;-96
2023/05/23 03:17:33;;;;;;;23.60;8.75;;;;;;;;;;6254536;22;20014;-96
2023/05/23 03:20:10;;;;;;;17.45;8.15;;;;;;;;;;6250583;22;20034;-96
2023/05/23 03:23:01;;;;;;;17.30;8.02;;;;;;;;;;6250769;22;20007;-96
2023/05/23 03:25:35;;;;;;;20.65;7.07;;;;;;;;;;6252183;22;19999;-96
2023/05/23 03:28:02;;;;;;;15.60;7.22;;;;;;;;;;6253480;22;20000;-96
2023/05/23 03:30:32;;;;;;;19.73;8.30;;;;;;;;;;6253418;22;20003;-96
2023/05/23 03:33:03;;;;;;;19.33;7.85;;;;;;;;;;6229060;22;20007;-96
2023/05/23 03:35:38;;;;;;;26.33;9.23;;;;;;;;;;6254570;22;19991;-96
2023/05/23 03:38:15;;;;;;;21.40;8.98;;;;;;;;;;6253928;22;19995;-96
2023/05/23 03:40:44;;;;;;;19.90;9.80;;;;;;;;;;6279100;22;20060;-96
2023/05/23 03:43:17;;;;;;;12.63;5.38;;;;;;;;;;6251317;22;20050;-96
2023/05/23 03:45:48;;;;;;;19.92;8.30;;;;;;;;;;6252576;22;20346;-96
2023/05/23 03:48:22;;;;;;;18.25;8.18;;;;;;;;;;6249723;22;20000;-96
2023/05/23 03:50:50;;;;;;;17.50;7.55;;;;;;;;;;6252375;22;20109;-96
2023/05/23 03:53:18;;;;;;;20.50;8.85;;;;;;;;;;6252537;22;20003;-96
2023/05/23 03:58:51;;;;;;;21.15;8.25;;;;;;;;;;6279791;22;19996;-96
2023/05/23 04:01:21;;;;;;;20.40;7.57;;;;;;;;;;6252574;22;20011;-96
2023/05/23 04:03:53;;;;;;;15.35;7.40;;;;;;;;;;6253354;22;20000;-96
2023/05/23 04:09:13;;;;;;;24.85;8.07;;;;;;;;;;6280545;22;20016;-96
2023/05/23 04:11:52;;;;;;;;;;;;;;;;;;;;;
2023/05/23 04:14:23;;;;;;;16.00;7.28;;;;;;;;;;6279139;22;20106;-96
2023/05/23 04:17:01;;;;;;;13.35;7.03;;;;;;;;;;6251971;22;19996;-96
2023/05/23 04:19:29;;;;;;;14.60;6.63;;;;;;;;;;6253340;22;20098;-96
2023/05/23 04:21:54;;;;;;;19.20;7.15;;;;;;;;;;6251434;22;20111;-95
2023/05/23 04:27:27;;;;;;;15.13;7.63;;;;;;;;;;6280773;22;20073;-96
2023/05/23 04:30:15;;;;;;;11.77;6.00;;;;;;;;;;6294114;22;20063;-96
2023/05/23 04:32:43;;;;;;;12.57;6.03;;;;;;;;;;6338358;22;20003;-93
2023/05/23 04:35:11;;;;;;;13.95;6.45;;;;;;;;;;6308047;22;20013;-94
2023/05/23 04:37:57;;;;;;;14.65;6.90;;;;;;;;;;6307807;22;20087;-95
2023/05/23 04:40:43;;;;;;;16.00;6.43;;;;;;;;;;6306509;22;19999;-96
2023/05/23 04:43:19;;;;;;;14.23;6.32;;;;;;;;;;6306294;22;20352;-96
2023/05/23 04:45:53;;;;;;;18.17;6.38;;;;;;;;;;6307143;22;20015;-96
2023/05/23 04:48:27;;;;;;;12.80;5.95;;;;;;;;;;6304592;22;20013;-96
2023/05/23 04:50:56;;;;;;;13.77;6.45;;;;;;;;;;6304862;22;20467;-96
2023/05/23 04:53:51;;;;;;;;;;;;;;;;;;;;;
2023/05/23 04:56:45;;;;;;;16.27;6.82;;;;;;;;;;6290959;22;20474;-96
2023/05/23 04:59:41;;;;;;;17.77;6.97;;;;;;;;;;6226083;22;20030;-96
2023/05/23 05:02:35;;;;;;;;;;;;;;;;;;;;;
2023/05/23 05:05:17;;;;;;;17.70;6.82;;;;;;;;;;6293207;22;20051;-96
2023/05/23 05:08:08;;;;;;;15.35;6.90;;;;;;;;;;6307198;22;20003;-96
2023/05/23 05:10:36;;;;;;;17.20;7.60;;;;;;;;;;6281838;22;20511;-96
2023/05/23 05:13:29;;;;;;;;;;;;;;;;;;;;;
2023/05/23 05:16:20;;;;;;;18.88;6.68;;;;;;;;;;6311049;22;20064;-96
2023/05/23 05:19:05;;;;;;;14.73;6.47;;;;;;;;;;6271213;22;20061;-96
2023/05/23 05:21:56;;;;;;;17.00;6.53;;;;;;;;;;6309911;22;19999;-96
2023/05/23 05:27:41;;;;;;;20.65;7.22;;;;;;;;;;6213864;23;20083;-96
2023/05/23 05:30:35;;;;;;;;;;;;;;;;;;;;;
2023/05/23 05:33:22;;;;;;;;;;;;;;;;;;;;;
2023/05/23 05:36:10;;;;;;;;;;;;;;;;;;;;;
2023/05/23 05:39:08;;;;;;;18.10;7.22;;;;;;;;;;6260173;22;20027;-96
2023/05/23 05:44:44;;;;;;;19.30;7.10;;;;;;;;;;6295796;22;20007;-96
2023/05/23 05:47:25;;;;;;;;;;;;;;;;;;;;;
2023/05/23 05:49:51;;;;;;;17.50;7.20;;;;;;;;;;6311140;22;20086;-96
2023/05/23 05:52:27;;;;;;;23.52;7.00;;;;;;;;;;6310865;22;20004;-96
2023/05/23 05:54:56;;;;;;;19.83;7.80;;;;;;;;;;6309765;22;20029;-96
2023/05/23 05:57:29;;;;;;;17.15;6.28;;;;;;;;;;6309168;22;20173;-96
2023/05/23 06:00:21;;;;;;;20.27;6.88;;;;;;;;;;6306727;22;20003;-96
2023/05/23 06:02:47;;;;;;;16.65;6.40;;;;;;;;;;6308343;22;19999;-96
2023/05/23 06:05:17;;;;;;;22.58;6.68;;;;;;;;;;6308824;22;20509;-96
2023/05/23 06:07:43;;;;;;;15.93;6.95;;;;;;;;;;6309078;22;20509;-95
2023/05/23 06:10:12;;;;;;;19.02;6.45;;;;;;;;;;6308587;22;20078;-96
2023/05/23 06:12:40;;;;;;;17.98;6.97;;;;;;;;;;6307161;22;20004;-96
2023/05/23 06:15:05;;;;;;;22.63;7.32;;;;;;;;;;6308126;22;19995;-96
2023/05/23 06:17:31;;;;;;;32.00;8.02;;;;;;;;;;6307853;22;20014;-96
2023/05/23 06:19:56;;;;;;;25.23;8.00;;;;;;;;;;6307729;22;19995;-96
2023/05/23 06:22:24;;;;;;;16.52;6.50;;;;;;;;;;6308876;22;20027;-96
2023/05/23 06:24:49;;;;;;;21.80;6.07;;;;;;;;;;6308194;22;20089;-96
2023/05/23 06:27:17;;;;;;;21.63;6.70;;;;;;;;;;6307387;22;20552;-95
2023/05/23 06:29:45;;;;;;;19.25;6.00;;;;;;;;;;6307433;22;20003;-96
2023/05/23 06:32:10;;;;;;;20.98;4.97;;;;;;;;;;6306567;22;20030;-96
2023/05/23 06:34:35;;;;;;;20.60;6.20;;;;;;;;;;6306784;22;20243;-96
2023/05/23 06:37:01;;;;;;;9.57;4.47;;;;;;;;;;6309411;22;20330;-96
2023/05/23 06:39:26;;;;;;;19.30;5.40;;;;;;;;;;6309496;22;20430;-96
2023/05/23 06:41:52;;;;;;;13.73;4.20;;;;;;;;;;6320139;22;19995;-96
2023/05/23 06:44:19;;;;;;;16.98;6.28;;;;;;;;;;6318257;22;20003;-96
2023/05/23 06:46:46;;;;;;;14.60;4.45;;;;;;;;;;6321661;22;20045;-96
2023/05/23 06:49:20;;;;;;;11.77;5.18;;;;;;;;;;6324610;22;20075;-96
2023/05/23 06:51:47;;;;;;;12.10;4.60;;;;;;;;;;6322259;22;20003;-96
2023/05/23 06:54:32;;;;;;;14.90;4.53;;;;;;;;;;6325109;22;20004;-96
2023/05/23 06:57:00;;;;;;;9.43;4.15;;;;;;;;;;6325875;22;19999;-96
2023/05/23 06:59:28;;;;;;;14.45;4.82;;;;;;;;;;6322743;22;19999;-96
2023/05/23 07:02:14;;;;;;;16.48;4.88;;;;;;;;;;6317331;22;19999;-96
2023/05/23 07:04:42;;;;;;;12.07;5.25;;;;;;;;;;6318451;22;20404;-96
2023/05/23 07:07:08;;;;;;;13.20;5.20;;;;;;;;;;6297354;22;20006;-95
2023/05/23 07:09:58;;;;;;;14.45;4.50;;;;;;;;;;6317531;22;20014;-96
2023/05/23 07:12:36;;;;;;;12.30;5.03;;;;;;;;;;6304184;22;20045;-96
2023/05/23 07:15:02;;;;;;;11.98;4.75;;;;;;;;;;6323952;22;20013;-96
2023/05/23 07:17:29;;;;;;;9.05;4.00;;;;;;;;;;6326264;22;20004;-95
2023/05/23 07:19:54;;;;;;;15.10;5.65;;;;;;;;;;6298683;22;20018;-96
2023/05/23 07:22:22;;;;;;;11.05;4.47;;;;;;;;;;6324914;22;20010;-96
2023/05/23 07:24:49;;;;;;;14.60;4.95;;;;;;;;;;6320655;22;20022;-96
2023/05/23 07:27:16;;;;;;;14.10;4.85;;;;;;;;;;6319549;22;20022;-95
2023/05/23 07:29:41;;;;;;;11.57;4.53;;;;;;;;;;6288605;22;20015;-96
2023/05/23 07:32:07;;;;;;;15.10;5.10;;;;;;;;;;6318061;22;19991;-96
2023/05/23 07:34:32;;;;;;;14.43;5.10;;;;;;;;;;6317553;22;20430;-95
2023/05/23 07:36:58;;;;;;;14.30;4.45;;;;;;;;;;6317013;22;20018;-96
2023/05/23 07:39:24;;;;;;;12.95;6.25;;;;;;;;;;6317172;22;20011;-96
2023/05/23 07:41:50;;;;;;;18.40;6.20;;;;;;;;;;6318169;22;20010;-96
2023/05/23 07:44:15;;;;;;;12.20;5.18;;;;;;;;;;6319421;22;19995;-96
2023/05/23 07:46:40;;;;;;;12.55;5.90;;;;;;;;;;6313848;22;20108;-96
2023/05/23 07:49:07;;;;;;;10.77;4.65;;;;;;;;;;6313907;22;20009;-95
2023/05/23 07:51:32;;;;;;;12.65;4.78;;;;;;;;;;6291879;22;20006;-96
2023/05/23 07:53:58;;;;;;;12.30;5.88;;;;;;;;;;6320021;22;20019;-96
2023/05/23 07:56:44;;;;;;;14.43;6.22;;;;;;;;;;6319874;22;20003;-96
2023/05/23 07:59:21;;;;;;;14.05;5.15;;;;;;;;;;6300419;22;20410;-95
2023/05/23 08:01:49;;;;;;;11.90;5.57;;;;;;;;;;6324198;22;20043;-96
2023/05/23 08:04:26;;;;;;;14.20;6.10;;;;;;;;;;6324047;22;20068;-95
2023/05/23 08:06:55;;;;;;;14.30;5.50;;;;;;;;;;6325283;22;20007;-95
2023/05/23 08:09:21;;;;;;;15.48;5.53;;;;;;;;;;6324668;22;20090;-95
2023/05/23 08:11:48;;;;;;;14.27;5.63;;;;;;;;;;6297552;22;20022;-95
2023/05/23 08:14:24;;;;;;;17.48;6.32;;;;;;;;;;6324156;22;20019;-96
2023/05/23 08:16:49;;;;;;;15.35;5.53;;;;;;;;;;6286324;22;20003;-95
2023/05/23 08:19:20;;;;;;;16.77;5.82;;;;;;;;;;6313218;22;20007;-96
2023/05/23 08:21:48;;;;;;;10.80;5.32;;;;;;;;;;6287124;22;20023;-96
2023/05/23 08:27:12;;;;;;;13.57;5.75;;;;;;;;;;6285556;22;20032;-94
2023/05/23 08:29:44;;;;;;;17.17;5.75;;;;;;;;;;6290015;22;20026;-96
2023/05/23 08:32:12;;;;;;;15.65;4.72;;;;;;;;;;6282124;22;20349;-95
2023/05/23 08:34:37;;;;;;;20.48;6.80;;;;;;;;;;6251467;22;20082;-96
2023/05/23 08:37:03;;;;;;;17.95;5.80;;;;;;;;;;6283924;22;20002;-94
2023/05/23 08:39:29;;;;;;;12.30;6.45;;;;;;;;;;6279647;22;20078;-94
2023/05/23 08:41:54;;;;;;;18.25;6.25;;;;;;;;;;6277534;22;20015;-94
2023/05/23 08:44:19;;;;;;;16.75;6.53;;;;;;;;;;6275710;22;19996;-92
2023/05/23 08:46:45;;;;;;;16.10;5.68;;;;;;;;;;6274617;22;20071;-93
2023/05/23 08:49:13;;;;;;;17.42;6.53;;;;;;;;;;6275013;22;20451;-93
2023/05/23 08:51:41;;;;;;;13.50;5.80;;;;;;;;;;6274761;22;20492;-92
2023/05/23 08:54:08;;;;;;;16.65;7.35;;;;;;;;;;6275304;22;20027;-96
2023/05/23 08:56:33;;;;;;;14.00;6.13;;;;;;;;;;6275269;22;20065;-93
2023/05/23 08:58:59;;;;;;;13.10;6.05;;;;;;;;;;6277879;22;20007;-93
2023/05/23 09:01:25;;;;;;;11.57;4.63;;;;;;;;;;6275424;22;20012;-93
2023/05/23 09:03:50;;;;;;;13.57;4.47;;;;;;;;;;6273910;22;20079;-94
2023/05/23 09:06:17;;;;;;;10.60;4.68;;;;;;;;;;6273589;22;19996;-92
2023/05/23 09:08:45;;;;;;;11.10;4.20;;;;;;;;;;6275776;22;20004;-93
2023/05/23 09:11:11;;;;;;;16.00;5.00;;;;;;;;;;6274644;22;20015;-94
2023/05/23 09:13:38;;;;;;;10.10;4.32;;;;;;;;;;6275205;22;20058;-94
2023/05/23 09:16:05;;;;;;;13.52;4.80;;;;;;;;;;6278690;22;20438;-94
2023/05/23 09:18:35;;;;;;;8.25;3.47;;;;;;;;;;6279682;22;20004;-95
2023/05/23 09:21:01;;;;;;;10.82;3.75;;;;;;;;;;6283109;22;19995;-95
2023/05/23 09:23:33;;;;;;;10.55;3.80;;;;;;;;;;6280810;22;20057;-94
2023/05/23 09:26:06;;;;;;;11.98;3.72;;;;;;;;;;6276817;22;20011;-94
2023/05/23 09:28:35;;;;;;;8.95;3.80;;;;;;;;;;6279131;22;20007;-96
2023/05/23 09:31:01;;;;;;;9.05;2.92;;;;;;;;;;6280386;22;20021;-94
2023/05/23 09:33:44;;;;;;;8.57;3.20;;;;;;;;;;6280215;22;20035;-96
2023/05/23 09:36:09;;;;;;;6.57;3.50;;;;;;;;;;6278306;22;20366;-95
2023/05/23 09:38:39;;;;;;;11.13;3.72;;;;;;;;;;6279041;22;20042;-95
2023/05/23 09:41:05;;;;;;;10.95;2.95;;;;;;;;;;6278882;22;20015;-95
2023/05/23 09:43:31;;;;;;;12.10;3.95;;;;;;;;;;6281740;22;20000;-95
2023/05/23 09:46:00;;;;;;;11.73;3.10;;;;;;;;;;6279302;22;20004;-94
2023/05/23 09:48:31;;;;;;;7.45;3.20;;;;;;;;;;6279977;22;20008;-94
2023/05/23 09:50:56;;;;;;;7.93;3.13;;;;;;;;;;6280242;22;20015;-95
2023/05/23 09:53:21;;;;;;;9.07;3.83;;;;;;;;;;6281257;22;20007;-95
2023/05/23 09:55:49;;;;;;;14.05;4.40;;;;;;;;;;6278982;22;20442;-94
2023/05/23 09:58:16;;;;;;;10.63;4.13;;;;;;;;;;6280810;22;20011;-95
2023/05/23 10:00:50;;;;;;;11.18;3.90;;;;;;;;;;6283900;22;20007;-93
2023/05/23 10:03:57;;;;;;;10.90;4.28;;;;;;;;;;6292313;22;20338;-94
2023/05/23 10:06:42;;;;;;;12.40;3.72;;;;;;;;;;6147295;23;20043;-93
2023/05/23 10:09:16;;;;;;;12.68;4.20;;;;;;;;;;6286120;22;20004;-94
2023/05/23 10:12:00;;;;;;;11.93;3.70;;;;;;;;;;6283408;22;20008;-94
2023/05/23 10:14:28;;;;;;;9.15;3.78;;;;;;;;;;6285357;22;20091;-96
2023/05/23 10:17:09;;;;;;;11.20;3.90;;;;;;;;;;6284449;22;20065;-94
2023/05/23 10:19:51;;;;;;;11.40;3.37;;;;;;;;;;6284646;22;20012;-95
2023/05/23 10:22:17;;;;;;;12.57;3.72;;;;;;;;;;6282879;22;20007;-94
2023/05/23 10:24:48;;;;;;;7.88;3.67;;;;;;;;;;6283919;22;20008;-95
2023/05/23 10:27:15;;;;;;;10.55;3.40;;;;;;;;;;6286606;22;20015;-94
2023/05/23 10:29:53;;;;;;;8.82;3.63;;;;;;;;;;6290396;22;20000;-93
2023/05/23 10:32:20;;;;;;;11.15;3.65;;;;;;;;;;6289724;22;20047;-94
2023/05/23 10:34:56;;;;;;;11.38;4.00;;;;;;;;;;6286955;22;19999;-94
2023/05/23 10:37:37;;;;;;;10.85;3.20;;;;;;;;;;6288462;22;20000;-96
2023/05/23 10:40:17;;;;;;;7.57;2.92;;;;;;;;;;6288361;22;19996;-94
2023/05/23 10:43:02;;;;;;;7.75;3.60;;;;;;;;;;6286833;22;20011;-94
2023/05/23 10:45:28;;;;;;;13.05;3.47;;;;;;;;;;6288254;22;20110;-95
2023/05/23 10:47:53;;;;;;;6.38;3.30;;;;;;;;;;6286225;22;20016;-96
2023/05/23 10:50:32;;;;;;;6.05;2.92;;;;;;;;;;6285880;22;20045;-95
2023/05/23 10:53:00;;;;;;;2.65;1.73;;;;;;;;;;6289110;22;20087;-95
2023/05/23 10:55:27;;;;;;;9.05;2.53;;;;;;;;;;6286875;22;20000;-94
2023/05/23 10:58:11;;;;;;;5.95;2.15;;;;;;;;;;6287181;22;20030;-94
2023/05/23 11:00:38;;;;;;;9.70;2.65;;;;;;;;;;6280103;22;20004;-94
2023/05/23 11:03:05;;;;;;;5.00;2.13;;;;;;;;;;6278611;22;20441;-95
2023/05/23 11:05:32;;;;;;;5.25;2.53;;;;;;;;;;6252906;22;20094;-94
2023/05/23 11:08:13;;;;;;;11.52;2.20;;;;;;;;;;6279116;22;20077;-94
2023/05/23 11:10:50;;;;;;;5.47;2.08;;;;;;;;;;6278966;22;20378;-94
2023/05/23 11:13:16;;;;;;;4.72;2.17;;;;;;;;;;6278768;22;20062;-94
2023/05/23 11:15:41;;;;;;;7.00;1.88;;;;;;;;;;6278769;22;20007;-94
2023/05/23 11:18:07;;;;;;;6.78;2.00;;;;;;;;;;6279906;22;20083;-94
2023/05/23 11:20:33;;;;;;;8.05;1.80;;;;;;;;;;6278789;22;20430;-94
2023/05/23 11:22:59;;;;;;;7.53;2.60;;;;;;;;;;6280297;22;20103;-94
2023/05/23 11:25:41;;;;;;;10.55;2.20;;;;;;;;;;6279696;22;20010;-94
2023/05/23 11:28:07;;;;;;;5.70;2.05;;;;;;;;;;6288047;22;20003;-95
2023/05/23 11:30:33;;;;;;;12.07;2.63;;;;;;;;;;6282703;22;20011;-94
2023/05/23 11:32:59;;;;;;;8.30;2.58;;;;;;;;;;6282158;22;20004;-94
2023/05/23 11:35:25;;;;;;;8.07;2.17;;;;;;;;;;6279290;22;20061;-94
2023/05/23 11:37:51;;;;;;;7.57;2.70;;;;;;;;;;6282452;22;20000;-95
2023/05/23 11:40:27;;;;;;;11.77;2.00;;;;;;;;;;6278250;22;20014;-94
2023/05/23 11:42:53;;;;;;;6.30;1.85;;;;;;;;;;6283859;22;20517;-95
2023/05/23 11:45:20;;;;;;;11.30;2.67;;;;;;;;;;6255677;22;20090;-94
2023/05/23 11:47:54;;;;;;;8.07;2.20;;;;;;;;;;6273039;22;20010;-95
2023/05/23 11:50:20;;;;;;;4.20;1.65;;;;;;;;;;6278630;22;20019;-94
2023/05/23 11:52:50;;;;;;;7.82;2.08;;;;;;;;;;6278864;22;20057;-94
2023/05/23 11:55:22;;;;;;;9.65;2.00;;;;;;;;;;6284075;22;20030;-94
2023/05/23 11:57:48;;;;;;;6.20;2.33;;;;;;;;;;6280259;22;20014;-94
2023/05/23 12:00:17;;;;;;;13.77;2.15;;;;;;;;;;6282030;22;20064;-94
2023/05/23 12:02:43;;;;;;;10.02;2.03;;;;;;;;;;6280995;22;20420;-95
2023/05/23 12:05:12;;;;;;;9.52;2.13;;;;;;;;;;6283738;22;20000;-94
2023/05/23 12:07:44;;;;;;;10.85;2.20;;;;;;;;;;6256338;22;20027;-94
2023/05/23 12:10:10;;;;;;;7.25;2.15;;;;;;;;;;6277496;22;20019;-94
2023/05/23 12:12:36;;;;;;;7.82;2.33;;;;;;;;;;6283358;22;20414;-95
2023/05/23 12:15:02;;;;;;;4.63;1.75;;;;;;;;;;6284543;22;20027;-94
2023/05/23 12:17:28;;;;;;;7.70;2.33;;;;;;;;;;6281557;22;20015;-95
2023/05/23 12:19:53;;;;;;;8.30;2.60;;;;;;;;;;6279283;22;20007;-94
2023/05/23 12:22:25;;;;;;;12.15;2.08;;;;;;;;;;6283094;22;20381;-94
2023/05/23 12:25:14;;;;;;;10.75;2.75;;;;;;;;;;6282987;22;19995;-94
2023/05/23 12:27:41;;;;;;;8.10;2.25;;;;;;;;;;6275978;22;20059;-94
2023/05/23 12:30:14;;;;;;;7.55;2.08;;;;;;;;;;6256097;22;20023;-95
2023/05/23 12:32:44;;;;;;;9.73;1.70;;;;;;;;;;6277087;22;20023;-94
2023/05/23 12:35:14;;;;;;;7.22;2.00;;;;;;;;;;6281287;22;20004;-94
2023/05/23 12:37:39;;;;;;;5.68;1.95;;;;;;;;;;6278943;22;20003;-94
2023/05/23 12:40:13;;;;;;;11.90;2.28;;;;;;;;;;6282189;22;19992;-94
2023/05/23 12:42:45;;;;;;;6.55;1.88;;;;;;;;;;6278980;22;20061;-94
2023/05/23 12:45:12;;;;;;;6.20;1.63;;;;;;;;;;6279657;22;20004;-95
2023/05/23 12:47:39;;;;;;;14.35;2.20;;;;;;;;;;6279195;22;20019;-93
2023/05/23 12:50:05;;;;;;;9.15;1.98;;;;;;;;;;6278387;22;20011;-94
2023/05/23 12:52:31;;;;;;;7.28;2.25;;;;;;;;;;6280093;22;20000;-94
2023/05/23 12:54:56;;;;;;;9.60;1.70;;;;;;;;;;6277116;22;20013;-93
2023/05/23 12:57:21;;;;;;;6.68;1.77;;;;;;;;;;6278426;22;20114;-93
2023/05/23 12:59:47;;;;;;;10.27;2.15;;;;;;;;;;6282158;22;20418;-94
2023/05/23 13:02:13;;;;;;;5.15;1.83;;;;;;;;;;6280454;22;20015;-93
2023/05/23 13:04:40;;;;;;;9.30;1.90;;;;;;;;;;6280682;22;20007;-94
2023/05/23 13:07:06;;;;;;;12.52;2.10;;;;;;;;;;6281063;22;20003;-94
2023/05/23 13:09:34;;;;;;;9.00;1.73;;;;;;;;;;6280927;22;20034;-94
2023/05/23 13:12:00;;;;;;;10.10;2.05;;;;;;;;;;6280391;22;20009;-93
2023/05/23 13:14:26;;;;;;;11.40;2.10;;;;;;;;;;6282606;22;20007;-94
2023/05/23 13:16:51;;;;;;;9.73;1.90;;;;;;;;;;6283198;22;20031;-94
2023/05/23 13:19:18;;;;;;;5.90;1.75;;;;;;;;;;6281270;22;20000;-94
2023/05/23 13:21:44;;;;;;;12.32;2.08;;;;;;;;;;6283762;22;20053;-96
2023/05/23 13:24:09;;;;;;;9.05;1.92;;;;;;;;;;6288925;22;20007;-93
2023/05/23 13:26:35;;;;;;;5.22;1.90;;;;;;;;;;6282949;22;20012;-94
2023/05/23 13:29:00;;;;;;;5.80;1.75;;;;;;;;;;6283445;22;19999;-95
2023/05/23 13:31:26;;;;;;;5.93;1.95;;;;;;;;;;6282413;22;20027;-94
2023/05/23 13:33:51;;;;;;;6.72;1.60;;;;;;;;;;6284321;22;20024;-94
2023/05/23 13:36:19;;;;;;;7.18;2.35;;;;;;;;;;6287484;22;20094;-96
2023/05/23 13:38:44;;;;;;;4.13;1.23;;;;;;;;;;6279784;22;20019;-93
2023/05/23 13:41:10;;;;;;;9.15;2.08;;;;;;;;;;6287452;22;20086;-94
2023/05/23 13:43:35;;;;;;;7.13;1.90;;;;;;;;;;6287567;22;20042;-94
2023/05/23 13:46:02;;;;;;;7.10;1.65;;;;;;;;;;6284997;22;20022;-95
2023/05/23 13:48:28;;;;;;;8.30;1.73;;;;;;;;;;6285433;22;19996;-95
2023/05/23 13:50:55;;;;;;;7.20;1.77;;;;;;;;;;6286892;22;20051;-95
2023/05/23 13:53:22;;;;;;;7.90;1.83;;;;;;;;;;6284026;22;19995;-95
2023/05/23 13:55:48;;;;;;;10.98;2.25;;;;;;;;;;6282986;22;20007;-96
2023/05/23 13:58:21;;;;;;;10.88;1.30;;;;;;;;;;6281472;22;20020;-96
2023/05/23 14:00:46;;;;;;;;;;;;;;;;;;6259604;22;20000;-95
2023/05/23 14:03:11;;;;;;;7.85;1.75;;;;;;;;;;6286422;22;19914;-95
2023/05/23 14:05:37;;;;;;;8.50;2.25;;;;;;;;;;6284343;22;20004;-95
2023/05/23 14:08:03;;;;;;;10.18;2.38;;;;;;;;;;6284322;22;20021;-94
2023/05/23 14:10:32;;;;;;;7.78;1.90;;;;;;;;;;6284265;22;20024;-96
2023/05/23 14:13:00;;;;;;;8.30;2.25;;;;;;;;;;6284243;22;20422;-95
2023/05/23 14:15:45;;;;;;;6.35;1.92;;;;;;;;;;6286347;22;20334;-95
2023/05/23 14:18:11;;;;;;;9.65;2.03;;;;;;;;;;6283693;22;20079;-94
2023/05/23 14:20:37;;;;;;;7.10;1.80;;;;;;;;;;6285029;22;20178;-95
2023/05/23 14:23:04;;;;;;;14.95;2.08;;;;;;;;;;6285905;22;20138;-96
2023/05/23 14:25:29;;;;;;;13.95;1.92;;;;;;;;;;6281658;22;20016;-95
2023/05/23 14:28:04;;;;;;;18.48;1.85;;;;;;;;;;6283182;22;20017;-95
2023/05/23 14:30:32;;;;;;;5.95;1.73;;;;;;;;;;6283823;22;20018;-94
2023/05/23 14:32:57;;;;;;;9.15;1.90;;;;;;;;;;6276715;22;20352;-95
2023/05/23 14:35:24;;;;;;;7.95;1.50;;;;;;;;;;6278345;22;20064;-93
2023/05/23 14:37:49;;;;;;;12.20;2.30;;;;;;;;;;6281756;22;20619;-94
2023/05/23 14:40:17;;;;;;;8.93;2.08;;;;;;;;;;6256064;22;20012;-96
2023/05/23 14:42:43;;;;;;;9.30;2.20;;;;;;;;;;6283051;22;20008;-95
2023/05/23 14:45:09;;;;;;;11.25;2.65;;;;;;;;;;6279967;22;20011;-94
2023/05/23 14:47:36;;;;;;;11.25;1.73;;;;;;;;;;6279572;22;20004;-95
2023/05/23 14:50:01;;;;;;;8.82;2.30;;;;;;;;;;6280016;22;20031;-95
2023/05/23 14:52:28;;;;;;;8.82;2.20;;;;;;;;;;6254527;22;20007;-96
2023/05/23 14:54:55;;;;;;;9.80;2.22;;;;;;;;;;6280061;22;19995;-95
2023/05/23 14:57:23;;;;;;;10.15;2.03;;;;;;;;;;6282058;22;20003;-94
2023/05/23 15:00:09;;;;;;;12.02;1.98;;;;;;;;;;6256286;22;20023;-95
2023/05/23 15:02:34;;;;;;;9.65;2.20;;;;;;;;;;6276966;22;20010;-96
2023/05/23 15:05:01;;;;;;;7.38;1.98;;;;;;;;;;6280351;22;20008;-96
2023/05/23 15:07:27;;;;;;;6.80;1.95;;;;;;;;;;6257328;22;20105;-94
2023/05/23 15:09:52;;;;;;;15.80;2.50;;;;;;;;;;6282172;22;20015;-95
2023/05/23 15:12:19;;;;;;;7.90;1.88;;;;;;;;;;6283905;22;20000;-95
2023/05/23 15:14:47;;;;;;;8.15;2.00;;;;;;;;;;6282493;22;20107;-95
2023/05/23 15:17:18;;;;;;;15.10;2.78;;;;;;;;;;6279966;22;20023;-95
2023/05/23 15:19:45;;;;;;;6.55;2.25;;;;;;;;;;6279621;22;20018;-95
2023/05/23 15:22:11;;;;;;;14.68;2.75;;;;;;;;;;6280287;22;20294;-96
2023/05/23 15:24:37;;;;;;;8.30;2.38;;;;;;;;;;6280686;22;20000;-94
2023/05/23 15:27:04;;;;;;;11.73;2.55;;;;;;;;;;6278500;22;20067;-94
2023/05/23 15:29:32;;;;;;;7.68;2.10;;;;;;;;;;6279664;22;19988;-96
2023/05/23 15:32:00;;;;;;;10.15;2.30;;;;;;;;;;6279696;22;20027;-94